sensor_id;sensor_type;location;lat;lon;timestamp;temperature;humidity
13336;DHT22;6737;51.480;11.962;2023-08-06T00:00:27;17.90;99.90
13336;DHT22;6737;51.480;11.962;2023-08-06T00:02:53;17.90;99.90
13336;DHT22;6737;51.480;11.962;2023-08-06T00:05:19;17.90;99.90
13336;DHT22;6737;51.480;11.962;2023-08-06T00:07:50;17.90;99.90
13336;DHT22;6737;51.480;11.962;2023-08-06T00:10:17;17.90;99.90
13336;DHT22;6737;51.480;11.962;2023-08-06T00:12:46;17.80;99.90
13336;DHT22;6737;51.480;11.962;2023-08-06T00:15:12;17.80;99.90
13336;DHT22;6737;51.480;11.962;2023-08-06T00:17:37;17.80;99.90
13336;DHT22;6737;51.480;11.962;2023-08-06T00:20:04;17.90;99.90
13336;DHT22;6737;51.480;11.962;2023-08-06T00:22:35;17.90;99.90
13336;DHT22;6737;51.480;11.962;2023-08-06T00:25:02;17.80;99.90
13336;DHT22;6737;51.480;11.962;2023-08-06T00:27:29;17.80;99.90
13336;DHT22;6737;51.480;11.962;2023-08-06T00:29:55;17.80;99.90
13336;DHT22;6737;51.480;11.962;2023-08-06T00:32:21;17.80;99.90
13336;DHT22;6737;51.480;11.962;2023-08-06T00:34:47;17.70;99.90
13336;DHT22;6737;51.480;11.962;2023-08-06T00:37:18;17.70;99.90
13336;DHT22;6737;51.480;11.962;2023-08-06T00:39:44;17.80;99.90
13336;DHT22;6737;51.480;11.962;2023-08-06T00:42:11;17.80;99.90
13336;DHT22;6737;51.480;11.962;2023-08-06T00:44:38;17.70;99.90
13336;DHT22;6737;51.480;11.962;2023-08-06T00:47:05;17.80;99.90
13336;DHT22;6737;51.480;11.962;2023-08-06T00:49:31;17.80;99.90
13336;DHT22;6737;51.480;11.962;2023-08-06T00:51:57;17.80;99.90
13336;DHT22;6737;51.480;11.962;2023-08-06T00:54:25;17.70;99.90
13336;DHT22;6737;51.480;11.962;2023-08-06T00:56:53;17.70;99.90
13336;DHT22;6737;51.480;11.962;2023-08-06T00:59:19;17.70;99.90
13336;DHT22;6737;51.480;11.962;2023-08-06T01:01:45;17.70;99.90
13336;DHT22;6737;51.480;11.962;2023-08-06T01:04:12;17.70;99.90
13336;DHT22;6737;51.480;11.962;2023-08-06T01:06:46;17.60;99.90
13336;DHT22;6737;51.480;11.962;2023-08-06T01:15:12;17.50;99.90
13336;DHT22;6737;51.480;11.962;2023-08-06T01:17:40;17.40;99.90
13336;DHT22;6737;51.480;11.962;2023-08-06T01:20:06;17.30;99.90
13336;DHT22;6737;51.480;11.962;2023-08-06T01:22:32;17.20;99.90
13336;DHT22;6737;51.480;11.962;2023-08-06T01:24:58;17.10;99.90
13336;DHT22;6737;51.480;11.962;2023-08-06T01:27:33;17.20;99.90
13336;DHT22;6737;51.480;11.962;2023-08-06T01:30:13;17.20;99.90
13336;DHT22;6737;51.480;11.962;2023-08-06T01:32:44;17.10;99.90
13336;DHT22;6737;51.480;11.962;2023-08-06T01:35:15;17.10;99.90
13336;DHT22;6737;51.480;11.962;2023-08-06T01:37:42;17.10;99.90
13336;DHT22;6737;51.480;11.962;2023-08-06T01:40:11;17.10;99.90
13336;DHT22;6737;51.480;11.962;2023-08-06T01:42:38;17.00;99.90
13336;DHT22;6737;51.480;11.962;2023-08-06T01:45:08;17.00;99.90
13336;DHT22;6737;51.480;11.962;2023-08-06T01:47:34;17.00;99.90
13336;DHT22;6737;51.480;11.962;2023-08-06T01:50:00;17.00;99.90
13336;DHT22;6737;51.480;11.962;2023-08-06T01:52:26;16.90;99.90
13336;DHT22;6737;51.480;11.962;2023-08-06T01:54:52;16.90;99.90
13336;DHT22;6737;51.480;11.962;2023-08-06T01:57:18;16.90;99.90
13336;DHT22;6737;51.480;11.962;2023-08-06T01:59:44;16.90;99.90
13336;DHT22;6737;51.480;11.962;2023-08-06T02:02:09;16.90;99.90
13336;DHT22;6737;51.480;11.962;2023-08-06T02:04:35;16.80;99.90
13336;DHT22;6737;51.480;11.962;2023-08-06T02:07:01;16.80;99.90
13336;DHT22;6737;51.480;11.962;2023-08-06T02:09:27;16.80;99.90
13336;DHT22;6737;51.480;11.962;2023-08-06T02:11:52;16.80;99.90
13336;DHT22;6737;51.480;11.962;2023-08-06T02:14:18;16.80;99.90
13336;DHT22;6737;51.480;11.962;2023-08-06T02:16:44;16.90;99.90
13336;DHT22;6737;51.480;11.962;2023-08-06T02:19:09;16.80;99.90
13336;DHT22;6737;51.480;11.962;2023-08-06T02:21:35;16.80;99.90
13336;DHT22;6737;51.480;11.962;2023-08-06T02:24:01;16.80;99.90
13336;DHT22;6737;51.480;11.962;2023-08-06T02:26:27;16.80;99.90
13336;DHT22;6737;51.480;11.962;2023-08-06T02:28:53;16.80;99.90
13336;DHT22;6737;51.480;11.962;2023-08-06T02:31:18;16.80;99.90
13336;DHT22;6737;51.480;11.962;2023-08-06T02:33:44;16.80;99.90
13336;DHT22;6737;51.480;11.962;2023-08-06T02:36:10;16.80;99.90
13336;DHT22;6737;51.480;11.962;2023-08-06T02:38:36;16.80;99.90
13336;DHT22;6737;51.480;11.962;2023-08-06T02:41:04;16.80;99.90
13336;DHT22;6737;51.480;11.962;2023-08-06T02:43:31;16.70;99.90
13336;DHT22;6737;51.480;11.962;2023-08-06T02:46:01;16.70;99.90
13336;DHT22;6737;51.480;11.962;2023-08-06T02:48:27;16.80;99.90
13336;DHT22;6737;51.480;11.962;2023-08-06T02:50:53;16.70;99.90
13336;DHT22;6737;51.480;11.962;2023-08-06T02:53:22;16.70;99.90
13336;DHT22;6737;51.480;11.962;2023-08-06T02:55:48;16.70;99.90
13336;DHT22;6737;51.480;11.962;2023-08-06T02:58:14;16.70;99.90
13336;DHT22;6737;51.480;11.962;2023-08-06T03:00:41;16.70;99.90
13336;DHT22;6737;51.480;11.962;2023-08-06T03:03:07;16.70;99.90
13336;DHT22;6737;51.480;11.962;2023-08-06T03:05:33;16.70;99.90
13336;DHT22;6737;51.480;11.962;2023-08-06T03:07:59;16.70;99.90
13336;DHT22;6737;51.480;11.962;2023-08-06T03:10:24;16.70;99.90
13336;DHT22;6737;51.480;11.962;2023-08-06T03:12:50;16.70;99.90
13336;DHT22;6737;51.480;11.962;2023-08-06T03:15:16;16.70;99.90
13336;DHT22;6737;51.480;11.962;2023-08-06T03:17:42;16.70;99.90
13336;DHT22;6737;51.480;11.962;2023-08-06T03:20:08;16.70;99.90
13336;DHT22;6737;51.480;11.962;2023-08-06T03:22:33;16.70;99.90
13336;DHT22;6737;51.480;11.962;2023-08-06T03:24:59;16.80;99.90
13336;DHT22;6737;51.480;11.962;2023-08-06T03:27:25;16.80;99.90
13336;DHT22;6737;51.480;11.962;2023-08-06T03:29:51;16.70;99.90
13336;DHT22;6737;51.480;11.962;2023-08-06T03:32:17;16.70;99.90
13336;DHT22;6737;51.480;11.962;2023-08-06T03:34:42;16.70;99.90
13336;DHT22;6737;51.480;11.962;2023-08-06T03:37:08;16.80;99.90
13336;DHT22;6737;51.480;11.962;2023-08-06T03:39:34;16.70;99.90
13336;DHT22;6737;51.480;11.962;2023-08-06T03:41:59;16.70;99.90
13336;DHT22;6737;51.480;11.962;2023-08-06T03:44:25;16.70;99.90
13336;DHT22;6737;51.480;11.962;2023-08-06T03:46:52;16.70;99.90
13336;DHT22;6737;51.480;11.962;2023-08-06T03:49:18;16.70;99.90
13336;DHT22;6737;51.480;11.962;2023-08-06T03:51:44;16.70;99.90
13336;DHT22;6737;51.480;11.962;2023-08-06T03:54:09;16.70;99.90
13336;DHT22;6737;51.480;11.962;2023-08-06T03:56:35;16.70;99.90
13336;DHT22;6737;51.480;11.962;2023-08-06T03:59:01;16.70;99.90
13336;DHT22;6737;51.480;11.962;2023-08-06T04:01:27;16.70;99.90
13336;DHT22;6737;51.480;11.962;2023-08-06T04:03:53;16.60;99.90
13336;DHT22;6737;51.480;11.962;2023-08-06T04:06:19;16.60;99.90
13336;DHT22;6737;51.480;11.962;2023-08-06T04:08:44;16.60;99.90
13336;DHT22;6737;51.480;11.962;2023-08-06T04:11:10;16.50;99.90
13336;DHT22;6737;51.480;11.962;2023-08-06T04:13:36;16.50;99.90
13336;DHT22;6737;51.480;11.962;2023-08-06T04:16:02;16.50;99.90
13336;DHT22;6737;51.480;11.962;2023-08-06T04:18:28;16.50;99.90
13336;DHT22;6737;51.480;11.962;2023-08-06T04:20:54;16.50;99.90
13336;DHT22;6737;51.480;11.962;2023-08-06T04:23:21;16.40;99.90
13336;DHT22;6737;51.480;11.962;2023-08-06T04:25:46;16.40;99.90
13336;DHT22;6737;51.480;11.962;2023-08-06T04:28:12;16.40;99.90
13336;DHT22;6737;51.480;11.962;2023-08-06T04:30:38;16.30;99.90
13336;DHT22;6737;51.480;11.962;2023-08-06T04:33:04;16.30;99.90
13336;DHT22;6737;51.480;11.962;2023-08-06T04:35:29;16.30;99.90
13336;DHT22;6737;51.480;11.962;2023-08-06T04:37:55;16.30;99.90
13336;DHT22;6737;51.480;11.962;2023-08-06T04:40:21;16.20;99.90
13336;DHT22;6737;51.480;11.962;2023-08-06T04:42:47;16.20;99.90
13336;DHT22;6737;51.480;11.962;2023-08-06T04:45:13;16.20;99.90
13336;DHT22;6737;51.480;11.962;2023-08-06T04:47:38;16.20;99.90
13336;DHT22;6737;51.480;11.962;2023-08-06T04:50:04;16.20;99.90
13336;DHT22;6737;51.480;11.962;2023-08-06T04:52:30;16.20;99.90
13336;DHT22;6737;51.480;11.962;2023-08-06T04:54:57;16.20;99.90
13336;DHT22;6737;51.480;11.962;2023-08-06T04:57:23;16.20;99.90
13336;DHT22;6737;51.480;11.962;2023-08-06T04:59:49;16.20;99.90
13336;DHT22;6737;51.480;11.962;2023-08-06T05:02:15;16.30;99.90
13336;DHT22;6737;51.480;11.962;2023-08-06T05:04:41;16.30;99.90
13336;DHT22;6737;51.480;11.962;2023-08-06T05:07:07;16.20;99.90
13336;DHT22;6737;51.480;11.962;2023-08-06T05:09:33;16.20;99.90
13336;DHT22;6737;51.480;11.962;2023-08-06T05:12:03;16.20;99.90
13336;DHT22;6737;51.480;11.962;2023-08-06T05:14:29;16.20;99.90
13336;DHT22;6737;51.480;11.962;2023-08-06T05:16:54;16.20;99.90
13336;DHT22;6737;51.480;11.962;2023-08-06T05:19:20;16.20;99.90
13336;DHT22;6737;51.480;11.962;2023-08-06T05:21:46;16.20;99.90
13336;DHT22;6737;51.480;11.962;2023-08-06T05:24:12;16.20;99.90
13336;DHT22;6737;51.480;11.962;2023-08-06T05:26:38;16.20;99.90
13336;DHT22;6737;51.480;11.962;2023-08-06T05:29:03;16.20;99.90
13336;DHT22;6737;51.480;11.962;2023-08-06T05:31:29;16.20;99.90
13336;DHT22;6737;51.480;11.962;2023-08-06T05:33:55;16.20;99.90
13336;DHT22;6737;51.480;11.962;2023-08-06T05:36:21;16.20;99.90
13336;DHT22;6737;51.480;11.962;2023-08-06T05:38:47;16.20;99.90
13336;DHT22;6737;51.480;11.962;2023-08-06T05:41:13;16.20;99.90
13336;DHT22;6737;51.480;11.962;2023-08-06T05:43:38;16.20;99.90
13336;DHT22;6737;51.480;11.962;2023-08-06T05:46:04;16.10;99.90
13336;DHT22;6737;51.480;11.962;2023-08-06T05:48:30;16.20;99.90
13336;DHT22;6737;51.480;11.962;2023-08-06T05:50:57;16.10;99.90
13336;DHT22;6737;51.480;11.962;2023-08-06T05:53:24;16.10;99.90
13336;DHT22;6737;51.480;11.962;2023-08-06T05:55:50;16.20;99.90
13336;DHT22;6737;51.480;11.962;2023-08-06T05:58:16;16.20;99.90
13336;DHT22;6737;51.480;11.962;2023-08-06T06:00:42;16.30;99.90
13336;DHT22;6737;51.480;11.962;2023-08-06T06:03:08;16.30;99.90
13336;DHT22;6737;51.480;11.962;2023-08-06T06:05:34;16.30;99.90
13336;DHT22;6737;51.480;11.962;2023-08-06T06:08:00;16.30;99.90
13336;DHT22;6737;51.480;11.962;2023-08-06T06:10:26;16.40;99.90
13336;DHT22;6737;51.480;11.962;2023-08-06T06:12:51;16.40;99.90
13336;DHT22;6737;51.480;11.962;2023-08-06T06:15:17;16.40;99.90
13336;DHT22;6737;51.480;11.962;2023-08-06T06:17:43;16.40;99.90
13336;DHT22;6737;51.480;11.962;2023-08-06T06:20:09;16.40;99.90
13336;DHT22;6737;51.480;11.962;2023-08-06T06:22:35;16.50;99.90
13336;DHT22;6737;51.480;11.962;2023-08-06T06:25:00;16.50;99.90
13336;DHT22;6737;51.480;11.962;2023-08-06T06:27:26;16.60;99.90
13336;DHT22;6737;51.480;11.962;2023-08-06T06:29:52;16.50;99.90
13336;DHT22;6737;51.480;11.962;2023-08-06T06:32:20;16.60;99.90
13336;DHT22;6737;51.480;11.962;2023-08-06T06:34:46;16.60;99.90
13336;DHT22;6737;51.480;11.962;2023-08-06T06:37:12;16.60;99.90
13336;DHT22;6737;51.480;11.962;2023-08-06T06:39:37;16.70;99.90
13336;DHT22;6737;51.480;11.962;2023-08-06T06:42:03;16.70;99.90
13336;DHT22;6737;51.480;11.962;2023-08-06T06:44:29;16.70;99.90
13336;DHT22;6737;51.480;11.962;2023-08-06T06:46:55;16.70;99.90
13336;DHT22;6737;51.480;11.962;2023-08-06T06:49:21;16.70;99.90
13336;DHT22;6737;51.480;11.962;2023-08-06T06:51:47;16.70;99.90
13336;DHT22;6737;51.480;11.962;2023-08-06T06:54:12;16.70;99.90
13336;DHT22;6737;51.480;11.962;2023-08-06T06:56:38;16.80;99.90
13336;DHT22;6737;51.480;11.962;2023-08-06T06:59:04;16.80;99.90
13336;DHT22;6737;51.480;11.962;2023-08-06T07:01:30;16.80;99.90
13336;DHT22;6737;51.480;11.962;2023-08-06T07:03:55;16.80;99.90
13336;DHT22;6737;51.480;11.962;2023-08-06T07:06:22;16.80;99.90
13336;DHT22;6737;51.480;11.962;2023-08-06T07:08:48;16.80;99.90
13336;DHT22;6737;51.480;11.962;2023-08-06T07:11:14;16.80;99.90
13336;DHT22;6737;51.480;11.962;2023-08-06T07:13:39;16.90;99.90
13336;DHT22;6737;51.480;11.962;2023-08-06T07:16:05;16.90;99.90
13336;DHT22;6737;51.480;11.962;2023-08-06T07:18:31;17.00;99.90
13336;DHT22;6737;51.480;11.962;2023-08-06T07:20:57;17.00;99.90
13336;DHT22;6737;51.480;11.962;2023-08-06T07:23:25;17.00;99.90
13336;DHT22;6737;51.480;11.962;2023-08-06T07:25:51;17.10;99.90
13336;DHT22;6737;51.480;11.962;2023-08-06T07:28:17;17.10;99.90
13336;DHT22;6737;51.480;11.962;2023-08-06T07:30:44;17.10;99.90
13336;DHT22;6737;51.480;11.962;2023-08-06T07:33:10;17.20;99.90
13336;DHT22;6737;51.480;11.962;2023-08-06T07:35:37;17.20;99.90
13336;DHT22;6737;51.480;11.962;2023-08-06T07:38:03;17.30;99.90
13336;DHT22;6737;51.480;11.962;2023-08-06T07:40:29;17.30;99.90
13336;DHT22;6737;51.480;11.962;2023-08-06T07:42:55;17.30;99.90
13336;DHT22;6737;51.480;11.962;2023-08-06T07:45:21;17.30;99.90
13336;DHT22;6737;51.480;11.962;2023-08-06T07:47:47;17.30;99.90
13336;DHT22;6737;51.480;11.962;2023-08-06T07:50:13;17.30;99.90
13336;DHT22;6737;51.480;11.962;2023-08-06T07:52:39;17.40;99.90
13336;DHT22;6737;51.480;11.962;2023-08-06T07:55:05;17.40;99.90
13336;DHT22;6737;51.480;11.962;2023-08-06T07:57:32;17.40;99.90
13336;DHT22;6737;51.480;11.962;2023-08-06T07:59:59;17.50;99.90
13336;DHT22;6737;51.480;11.962;2023-08-06T08:02:25;17.60;99.90
13336;DHT22;6737;51.480;11.962;2023-08-06T08:04:51;17.60;99.90
13336;DHT22;6737;51.480;11.962;2023-08-06T08:07:16;17.70;99.90
13336;DHT22;6737;51.480;11.962;2023-08-06T08:09:42;17.70;99.90
13336;DHT22;6737;51.480;11.962;2023-08-06T08:12:08;17.70;99.90
13336;DHT22;6737;51.480;11.962;2023-08-06T08:14:34;17.70;99.90
13336;DHT22;6737;51.480;11.962;2023-08-06T08:17:05;17.70;99.90
13336;DHT22;6737;51.480;11.962;2023-08-06T08:19:32;17.70;99.90
13336;DHT22;6737;51.480;11.962;2023-08-06T08:21:58;17.70;99.90
13336;DHT22;6737;51.480;11.962;2023-08-06T08:24:24;17.70;99.90
13336;DHT22;6737;51.480;11.962;2023-08-06T08:26:51;17.70;99.90
13336;DHT22;6737;51.480;11.962;2023-08-06T08:29:17;17.70;99.90
13336;DHT22;6737;51.480;11.962;2023-08-06T08:31:42;17.70;99.90
13336;DHT22;6737;51.480;11.962;2023-08-06T08:34:10;17.70;99.90
13336;DHT22;6737;51.480;11.962;2023-08-06T08:36:35;17.80;99.90
13336;DHT22;6737;51.480;11.962;2023-08-06T08:39:01;17.80;99.90
13336;DHT22;6737;51.480;11.962;2023-08-06T08:41:32;17.80;99.90
13336;DHT22;6737;51.480;11.962;2023-08-06T08:43:59;17.90;99.90
13336;DHT22;6737;51.480;11.962;2023-08-06T08:46:32;17.90;99.90
13336;DHT22;6737;51.480;11.962;2023-08-06T08:48:59;17.80;99.90
13336;DHT22;6737;51.480;11.962;2023-08-06T08:51:27;17.90;99.90
13336;DHT22;6737;51.480;11.962;2023-08-06T08:53:54;17.90;99.90
13336;DHT22;6737;51.480;11.962;2023-08-06T08:56:22;18.00;99.90
13336;DHT22;6737;51.480;11.962;2023-08-06T08:58:48;18.00;99.90
13336;DHT22;6737;51.480;11.962;2023-08-06T09:01:15;18.10;99.90
13336;DHT22;6737;51.480;11.962;2023-08-06T09:03:42;18.10;99.90
13336;DHT22;6737;51.480;11.962;2023-08-06T09:06:10;18.10;99.90
13336;DHT22;6737;51.480;11.962;2023-08-06T09:08:41;18.10;99.90
13336;DHT22;6737;51.480;11.962;2023-08-06T09:11:11;18.20;99.90
13336;DHT22;6737;51.480;11.962;2023-08-06T09:13:37;18.20;99.90
13336;DHT22;6737;51.480;11.962;2023-08-06T09:16:04;18.30;99.90
13336;DHT22;6737;51.480;11.962;2023-08-06T09:18:30;18.30;99.90
13336;DHT22;6737;51.480;11.962;2023-08-06T09:20:57;18.30;99.90
13336;DHT22;6737;51.480;11.962;2023-08-06T09:23:30;18.40;99.90
13336;DHT22;6737;51.480;11.962;2023-08-06T09:25:59;18.40;99.90
13336;DHT22;6737;51.480;11.962;2023-08-06T09:28:39;18.40;99.90
13336;DHT22;6737;51.480;11.962;2023-08-06T09:31:08;18.40;99.90
13336;DHT22;6737;51.480;11.962;2023-08-06T09:33:36;18.40;99.90
13336;DHT22;6737;51.480;11.962;2023-08-06T09:36:10;18.40;99.90
13336;DHT22;6737;51.480;11.962;2023-08-06T09:38:40;18.50;99.90
13336;DHT22;6737;51.480;11.962;2023-08-06T09:41:06;18.60;99.90
13336;DHT22;6737;51.480;11.962;2023-08-06T09:43:42;18.70;99.90
13336;DHT22;6737;51.480;11.962;2023-08-06T09:46:15;18.70;99.90
13336;DHT22;6737;51.480;11.962;2023-08-06T09:48:45;18.80;99.90
13336;DHT22;6737;51.480;11.962;2023-08-06T09:51:13;18.90;99.90
13336;DHT22;6737;51.480;11.962;2023-08-06T09:53:40;19.00;99.90
13336;DHT22;6737;51.480;11.962;2023-08-06T09:56:06;19.00;99.90
13336;DHT22;6737;51.480;11.962;2023-08-06T09:58:32;19.10;99.90
13336;DHT22;6737;51.480;11.962;2023-08-06T10:01:00;19.10;99.90
13336;DHT22;6737;51.480;11.962;2023-08-06T10:03:28;19.20;99.90
13336;DHT22;6737;51.480;11.962;2023-08-06T10:05:55;19.20;99.90
13336;DHT22;6737;51.480;11.962;2023-08-06T10:08:23;19.30;99.90
13336;DHT22;6737;51.480;11.962;2023-08-06T10:10:49;19.20;99.90
13336;DHT22;6737;51.480;11.962;2023-08-06T10:13:16;19.30;99.90
13336;DHT22;6737;51.480;11.962;2023-08-06T10:15:43;19.40;99.90
13336;DHT22;6737;51.480;11.962;2023-08-06T10:18:09;19.40;99.90
13336;DHT22;6737;51.480;11.962;2023-08-06T10:20:37;19.50;99.90
13336;DHT22;6737;51.480;11.962;2023-08-06T10:23:06;19.50;99.90
13336;DHT22;6737;51.480;11.962;2023-08-06T10:25:35;19.50;99.90
13336;DHT22;6737;51.480;11.962;2023-08-06T10:28:11;19.60;99.90
13336;DHT22;6737;51.480;11.962;2023-08-06T10:30:47;19.70;99.90
13336;DHT22;6737;51.480;11.962;2023-08-06T10:33:14;19.70;99.90
13336;DHT22;6737;51.480;11.962;2023-08-06T10:35:42;19.70;99.90
13336;DHT22;6737;51.480;11.962;2023-08-06T10:38:15;19.90;99.90
13336;DHT22;6737;51.480;11.962;2023-08-06T10:40:42;20.00;99.90
13336;DHT22;6737;51.480;11.962;2023-08-06T10:43:32;20.00;99.90
13336;DHT22;6737;51.480;11.962;2023-08-06T10:46:03;20.00;99.90
13336;DHT22;6737;51.480;11.962;2023-08-06T10:51:08;20.00;99.90
13336;DHT22;6737;51.480;11.962;2023-08-06T10:53:34;20.00;99.90
13336;DHT22;6737;51.480;11.962;2023-08-06T10:56:01;19.90;99.90
13336;DHT22;6737;51.480;11.962;2023-08-06T10:58:33;19.90;99.90
13336;DHT22;6737;51.480;11.962;2023-08-06T11:01:00;19.90;99.90
13336;DHT22;6737;51.480;11.962;2023-08-06T11:03:27;19.80;99.90
13336;DHT22;6737;51.480;11.962;2023-08-06T11:05:53;19.90;99.90
13336;DHT22;6737;51.480;11.962;2023-08-06T11:08:26;20.10;99.90
13336;DHT22;6737;51.480;11.962;2023-08-06T11:10:53;20.20;99.90
13336;DHT22;6737;51.480;11.962;2023-08-06T11:13:20;20.30;99.90
13336;DHT22;6737;51.480;11.962;2023-08-06T11:15:46;20.50;99.90
13336;DHT22;6737;51.480;11.962;2023-08-06T11:18:12;20.50;99.90
13336;DHT22;6737;51.480;11.962;2023-08-06T11:20:38;20.70;99.90
13336;DHT22;6737;51.480;11.962;2023-08-06T11:23:05;20.70;99.90
13336;DHT22;6737;51.480;11.962;2023-08-06T11:25:31;20.80;99.90
13336;DHT22;6737;51.480;11.962;2023-08-06T11:27:57;21.00;99.90
13336;DHT22;6737;51.480;11.962;2023-08-06T11:30:22;21.00;99.90
13336;DHT22;6737;51.480;11.962;2023-08-06T11:32:48;21.10;99.90
13336;DHT22;6737;51.480;11.962;2023-08-06T11:35:15;21.10;99.90
13336;DHT22;6737;51.480;11.962;2023-08-06T11:37:48;21.00;99.90
13336;DHT22;6737;51.480;11.962;2023-08-06T11:40:17;21.00;99.90
13336;DHT22;6737;51.480;11.962;2023-08-06T11:42:45;21.00;99.90
13336;DHT22;6737;51.480;11.962;2023-08-06T11:45:11;21.10;99.90
13336;DHT22;6737;51.480;11.962;2023-08-06T11:47:40;21.20;99.90
13336;DHT22;6737;51.480;11.962;2023-08-06T11:50:06;21.20;99.90
13336;DHT22;6737;51.480;11.962;2023-08-06T11:52:32;21.30;99.90
13336;DHT22;6737;51.480;11.962;2023-08-06T11:55:05;21.50;99.90
13336;DHT22;6737;51.480;11.962;2023-08-06T11:57:34;21.50;99.90
13336;DHT22;6737;51.480;11.962;2023-08-06T12:00:07;21.50;99.90
13336;DHT22;6737;51.480;11.962;2023-08-06T12:02:34;21.50;99.90
13336;DHT22;6737;51.480;11.962;2023-08-06T12:05:04;21.50;99.90
13336;DHT22;6737;51.480;11.962;2023-08-06T12:07:31;21.40;99.90
13336;DHT22;6737;51.480;11.962;2023-08-06T12:09:58;21.20;99.90
13336;DHT22;6737;51.480;11.962;2023-08-06T12:12:24;21.00;99.90
13336;DHT22;6737;51.480;11.962;2023-08-06T12:14:50;20.80;99.90
13336;DHT22;6737;51.480;11.962;2023-08-06T12:17:16;20.60;99.90
13336;DHT22;6737;51.480;11.962;2023-08-06T12:19:43;20.60;99.90
13336;DHT22;6737;51.480;11.962;2023-08-06T12:22:09;20.50;99.90
13336;DHT22;6737;51.480;11.962;2023-08-06T12:24:35;20.40;99.90
13336;DHT22;6737;51.480;11.962;2023-08-06T12:27:01;20.60;99.90
13336;DHT22;6737;51.480;11.962;2023-08-06T12:29:28;20.80;99.90
13336;DHT22;6737;51.480;11.962;2023-08-06T12:31:54;20.90;99.90
13336;DHT22;6737;51.480;11.962;2023-08-06T12:34:19;20.80;99.90
13336;DHT22;6737;51.480;11.962;2023-08-06T12:36:45;20.80;99.90
13336;DHT22;6737;51.480;11.962;2023-08-06T12:39:11;20.80;99.90
13336;DHT22;6737;51.480;11.962;2023-08-06T12:41:37;20.80;99.90
13336;DHT22;6737;51.480;11.962;2023-08-06T12:44:03;20.80;99.90
13336;DHT22;6737;51.480;11.962;2023-08-06T12:46:29;20.80;99.90
13336;DHT22;6737;51.480;11.962;2023-08-06T12:48:54;20.90;99.90
13336;DHT22;6737;51.480;11.962;2023-08-06T12:51:20;20.90;99.90
13336;DHT22;6737;51.480;11.962;2023-08-06T12:53:46;20.90;99.90
13336;DHT22;6737;51.480;11.962;2023-08-06T12:56:13;20.90;99.90
13336;DHT22;6737;51.480;11.962;2023-08-06T12:58:38;21.10;99.90
13336;DHT22;6737;51.480;11.962;2023-08-06T13:01:05;21.20;99.90
13336;DHT22;6737;51.480;11.962;2023-08-06T13:03:31;21.30;99.90
13336;DHT22;6737;51.480;11.962;2023-08-06T13:05:57;21.40;99.90
13336;DHT22;6737;51.480;11.962;2023-08-06T13:08:23;21.30;99.90
13336;DHT22;6737;51.480;11.962;2023-08-06T13:10:49;21.30;99.90
13336;DHT22;6737;51.480;11.962;2023-08-06T13:13:15;21.40;99.90
13336;DHT22;6737;51.480;11.962;2023-08-06T13:15:40;21.50;99.90
13336;DHT22;6737;51.480;11.962;2023-08-06T13:18:06;21.60;99.90
13336;DHT22;6737;51.480;11.962;2023-08-06T13:20:33;21.60;99.90
13336;DHT22;6737;51.480;11.962;2023-08-06T13:22:59;21.50;99.90
13336;DHT22;6737;51.480;11.962;2023-08-06T13:25:27;21.30;99.90
13336;DHT22;6737;51.480;11.962;2023-08-06T13:27:54;21.10;99.90
13336;DHT22;6737;51.480;11.962;2023-08-06T13:30:20;21.10;99.90
13336;DHT22;6737;51.480;11.962;2023-08-06T13:32:46;21.10;99.90
13336;DHT22;6737;51.480;11.962;2023-08-06T13:35:12;21.30;99.90
13336;DHT22;6737;51.480;11.962;2023-08-06T13:37:38;21.40;99.90
13336;DHT22;6737;51.480;11.962;2023-08-06T13:40:06;21.60;99.90
13336;DHT22;6737;51.480;11.962;2023-08-06T13:42:32;21.60;99.90
13336;DHT22;6737;51.480;11.962;2023-08-06T13:44:58;21.60;99.90
13336;DHT22;6737;51.480;11.962;2023-08-06T13:47:28;21.60;99.90
13336;DHT22;6737;51.480;11.962;2023-08-06T13:49:54;21.60;99.90
13336;DHT22;6737;51.480;11.962;2023-08-06T13:52:21;21.70;99.90
13336;DHT22;6737;51.480;11.962;2023-08-06T13:54:46;21.60;99.90
13336;DHT22;6737;51.480;11.962;2023-08-06T13:57:12;21.70;99.90
13336;DHT22;6737;51.480;11.962;2023-08-06T13:59:38;21.80;99.90
13336;DHT22;6737;51.480;11.962;2023-08-06T14:02:04;21.80;99.90
13336;DHT22;6737;51.480;11.962;2023-08-06T14:04:30;22.00;99.90
13336;DHT22;6737;51.480;11.962;2023-08-06T14:06:56;22.00;99.90
13336;DHT22;6737;51.480;11.962;2023-08-06T14:09:21;22.10;99.90
13336;DHT22;6737;51.480;11.962;2023-08-06T14:11:47;22.20;99.90
13336;DHT22;6737;51.480;11.962;2023-08-06T14:14:13;22.30;99.90
13336;DHT22;6737;51.480;11.962;2023-08-06T14:16:39;22.40;99.90
13336;DHT22;6737;51.480;11.962;2023-08-06T14:19:05;22.60;99.90
13336;DHT22;6737;51.480;11.962;2023-08-06T14:21:31;22.60;99.90
13336;DHT22;6737;51.480;11.962;2023-08-06T14:23:56;22.50;99.90
13336;DHT22;6737;51.480;11.962;2023-08-06T14:26:22;22.50;99.90
13336;DHT22;6737;51.480;11.962;2023-08-06T14:28:48;22.50;99.90
13336;DHT22;6737;51.480;11.962;2023-08-06T14:31:14;22.50;99.90
13336;DHT22;6737;51.480;11.962;2023-08-06T14:33:40;22.40;99.90
13336;DHT22;6737;51.480;11.962;2023-08-06T14:36:05;22.40;99.90
13336;DHT22;6737;51.480;11.962;2023-08-06T14:38:31;22.40;99.90
13336;DHT22;6737;51.480;11.962;2023-08-06T14:40:57;22.30;99.90
13336;DHT22;6737;51.480;11.962;2023-08-06T14:43:24;22.40;99.90
13336;DHT22;6737;51.480;11.962;2023-08-06T14:45:50;22.40;99.90
13336;DHT22;6737;51.480;11.962;2023-08-06T14:48:16;22.50;99.90
13336;DHT22;6737;51.480;11.962;2023-08-06T14:50:41;22.50;99.90
13336;DHT22;6737;51.480;11.962;2023-08-06T14:53:07;22.40;99.90
13336;DHT22;6737;51.480;11.962;2023-08-06T14:55:33;22.30;99.90
13336;DHT22;6737;51.480;11.962;2023-08-06T14:58:01;22.30;99.90
13336;DHT22;6737;51.480;11.962;2023-08-06T15:00:27;22.30;99.90
13336;DHT22;6737;51.480;11.962;2023-08-06T15:02:52;22.40;99.90
13336;DHT22;6737;51.480;11.962;2023-08-06T15:05:18;22.40;99.90
13336;DHT22;6737;51.480;11.962;2023-08-06T15:07:47;22.30;99.90
13336;DHT22;6737;51.480;11.962;2023-08-06T15:10:14;22.20;99.90
13336;DHT22;6737;51.480;11.962;2023-08-06T15:12:40;22.20;99.90
13336;DHT22;6737;51.480;11.962;2023-08-06T15:15:07;22.10;99.90
13336;DHT22;6737;51.480;11.962;2023-08-06T15:17:33;22.00;99.90
13336;DHT22;6737;51.480;11.962;2023-08-06T15:19:58;21.80;99.90
13336;DHT22;6737;51.480;11.962;2023-08-06T15:22:25;21.80;99.90
13336;DHT22;6737;51.480;11.962;2023-08-06T15:24:51;21.80;99.90
13336;DHT22;6737;51.480;11.962;2023-08-06T15:27:17;21.70;99.90
13336;DHT22;6737;51.480;11.962;2023-08-06T15:29:43;21.70;99.90
13336;DHT22;6737;51.480;11.962;2023-08-06T15:32:09;21.60;99.90
13336;DHT22;6737;51.480;11.962;2023-08-06T15:34:35;21.60;99.90